Search for airport 
image banner adimage banner adimage banner ad
image banner ad

KFLX - Fallon Muni

Located in Fallon, United States

ICAO - FLX, IATA - FLX

Data provided by Airmate  

General information

Coordinates: N39°29'57" W118°44'56"
Elevation is 3966 feet MSL.
Magnetic variation is 14° East
View others Airports in Nevada

Operational data

Special qualification required
Current time UTC:
Current local time:
METAR: KNFL 092256Z VRB06KT 10SM FEW090 FEW250 22/M09 A2994 RMK AO2 SLP111 T02171089 $
TAF: TAF KNFL 0823/0923 VRB06KT 9999 FEW250 QNH2994INS FM090300 02007KT 9999 FEW250 QNH2990INS FM091500 35010KT 9999 SCT250 QNH2980INS TEMPO 0919/0923 35014G22KT LAST NO AMDS AFT 0906 NEXT 1007 T04/0913Z T23/0922Z FS30170
View NOTAMs / SUP AIP / TFR affecting this airport [VIEW]
Communications frequencies: [VIEW]

Runways:

RWY identifierQFULength (ft)Width (ft)SurfaceLDA (ft)
0348°570575ASPH
21228°570575ASPH
13146°358160EARTH
31326°358160EARTH

Airport contact information

Address: Fallon United States

Satellite view of KFLX